Southern Sonoma County Latest

20 Stations

15 Minute Data
as of 5/8/26 5:54 PM PDT
Station Date Time Temp (°F) RH (%) Dew Pt (°F) Wind Spd (mph) Wind Dir (°) Wind Gust (mph) Latest Rain (In) Daily Rain (In) Daily Min Temp (°F) Daily Max Temp (°F)
Upper Rincon Valley 5/8/26 1745 68.7   5.4 59   11 53.9   0.2 2.8   0.6 SSE | 160 5.3   1.2 0.00 0.00 48.0   0.1 71.8   4.2
Lower Bennett Valley 5/8/26 1745 65.9   3.6 68   9 54.8   0.2 6.2   0.5 SSE | 151 9.7   1.1 0.00 0.00 49.2   0.7 71.3   2.6
Kenwood (Wildwood) 5/8/26 1745 74.5   9.0 53   16 56.2   1.0 2.3   2.4 NNW | 338 5.3   4.5 0.00 0.00 50.1   2.3 76.8   3.9
Crane Creek (Ranch 62) 5/8/26 1745 64.1   1.3 66   5 52.4   1.0 4.2   0.8 S | 190 8.4   0.3 0.00 0.00 49.8   1.0 70.5   2.6
Rohnert Park-West (Stony Point) 5/8/26 1745 64.0   2.6 72   7 54.9   0.1 5.3   0.6 SSW | 195 9.8   3.2 0.00 0.00 50.4   0.8 68.4   3.6
Rice-Spivak Vineyard 5/8/26 1745 65.9   3.1 - - - - - - - 49.9   0.9 70.8   4.0
Cartograph Wines Base 5/8/26 1745 62.4   3.2 78   7 55.3   0.8 7.3   2.0 S | 183 15.0   2.9 0.00 0.00 49.3   0.8 67.1   3.8
Cartograph Wines Remote 5/8/26 1745 61.5   1.2 - - - - - - - 50.0   0.9 67.9   4.2
Penngrove (Asellus) 5/8/26 1745 63.1   2.5 68   8 52.4   0.4 5.4   0.3 S | 176 9.5   0.0 0.00 0.00 49.8   1.1 69.4   3.1
Sonoma Valley (Bedrock) 5/8/26 1745 76.1   7.0 47   14 54.6   0.4 - - - 0.00 0.00 49.5   1.5 78.6   3.9
Sonoma-West (Arnold) 5/8/26 1745 71.1   4.9 59   7 56.1   1.4 5.8   0.8 SW | 215 10.2   0.9 0.00 0.01 51.3   2.6 75.4   0.3
Sonoma Valley HS 5/8/26 1745 70.0   4.6 64   9 57.2   0.8 5.0   0.1 SW | 217 10.0   0.2 0.00 0.00 51.1   0.3 73.5   0.5
Sonoma East (Bundschu01) 5/8/26 1745 70.5   5.5 57   10 54.6   0.9 3.5   2.1 SW | 235 10.3   2.6 0.00 0.00 51.3   0.4 73.6   1.0
Sonoma-SE (Napoli) 5/8/26 1745 70.7   6.5 53   13 52.8   0.1 5.1   3.2 WSW | 244 10.5   4.0 0.00 0.00 50.8   0.7 76.0   2.4
Schellville (Sasaki) 2/7/26 1900 53.4   2.2 88   10 49.9   1.0 3.3   1.8 SW | 225 5.8   4.0 0.00 0.00 47.0   0.8 62.8   8.4
Petaluma (Ranch 10) 5/8/26 1745 67.8   5.8 56   13 51.7   0.1 5.5   1.4 WNW | 284 10.0   2.5 0.00 0.00 51.3   0.9 72.7   3.0
Carneros (Ranch 71) 5/8/26 1745 68.8   6.8 56   16 52.3   0.5 9.2   6.1 WSW | 253 16.6   9.4 0.00 0.00 49.8   1.0 73.5   1.7
Ricci Vineyards (Carneros) 5/8/26 1745 71.0   7.2 53   16 53.0   0.3 6.3   6.4 WNW | 285 10.6   8.5 0.00 0.00 51.0   0.4 75.7   1.3
Carneros Upper (Ranch 81) 5/8/26 1745 69.8   6.4 53   15 52.0   0.9 10.4   4.0 WSW | 257 15.2   5.7 - - 49.9   1.0 73.4   0.2
Carneros Lower (Ranch 81) 5/8/26 1745 76.0   10.6 47   19 54.1   0.5 0.6   1.2 W | 275 8.3   3.6 0.00 0.00 51.3   0.2 77.7   0.3
Max     76.1 78 57.2 10.4 - 16.6 0.00 0.01 51.3 78.6
Avg     68.5 59 54.0 5.3 - 10.3 0.00 - - -
Min     61.5 47 51.7 0.6 - 5.3 0.00 0.00 48.0 67.1